sensor_id;sensor_type;location;lat;lon;timestamp;temperature;humidity
57664;DHT22;43493;53.098;6.064;2024-03-07T00:02:21;4.60;99.90
57664;DHT22;43493;53.098;6.064;2024-03-07T00:04:47;4.60;99.90
57664;DHT22;43493;53.098;6.064;2024-03-07T00:07:12;4.60;99.90
57664;DHT22;43493;53.098;6.064;2024-03-07T00:09:38;4.60;99.90
57664;DHT22;43493;53.098;6.064;2024-03-07T00:12:05;4.60;99.90
57664;DHT22;43493;53.098;6.064;2024-03-07T00:14:33;4.60;99.90
57664;DHT22;43493;53.098;6.064;2024-03-07T00:17:01;4.60;99.90
57664;DHT22;43493;53.098;6.064;2024-03-07T00:19:28;4.60;99.90
57664;DHT22;43493;53.098;6.064;2024-03-07T00:21:56;4.60;99.90
57664;DHT22;43493;53.098;6.064;2024-03-07T00:24:22;4.60;99.90
57664;DHT22;43493;53.098;6.064;2024-03-07T00:26:53;4.60;99.90
57664;DHT22;43493;53.098;6.064;2024-03-07T00:29:18;4.60;99.90
57664;DHT22;43493;53.098;6.064;2024-03-07T00:31:48;4.60;99.90
57664;DHT22;43493;53.098;6.064;2024-03-07T00:34:14;4.60;99.90
57664;DHT22;43493;53.098;6.064;2024-03-07T00:36:42;4.60;99.90
57664;DHT22;43493;53.098;6.064;2024-03-07T00:39:08;4.60;99.90
57664;DHT22;43493;53.098;6.064;2024-03-07T00:41:34;4.60;99.90
57664;DHT22;43493;53.098;6.064;2024-03-07T00:44:00;4.60;99.90
57664;DHT22;43493;53.098;6.064;2024-03-07T00:46:26;4.60;99.90
57664;DHT22;43493;53.098;6.064;2024-03-07T00:48:51;4.60;99.90
57664;DHT22;43493;53.098;6.064;2024-03-07T00:51:17;4.60;99.90
57664;DHT22;43493;53.098;6.064;2024-03-07T00:53:43;4.60;99.90
57664;DHT22;43493;53.098;6.064;2024-03-07T00:56:09;4.60;99.90
57664;DHT22;43493;53.098;6.064;2024-03-07T00:58:34;4.60;99.90
57664;DHT22;43493;53.098;6.064;2024-03-07T01:01:01;4.60;99.90
57664;DHT22;43493;53.098;6.064;2024-03-07T01:03:27;4.60;99.90
57664;DHT22;43493;53.098;6.064;2024-03-07T01:05:52;4.60;99.90
57664;DHT22;43493;53.098;6.064;2024-03-07T01:08:18;4.50;99.90
57664;DHT22;43493;53.098;6.064;2024-03-07T01:10:44;4.50;99.90
57664;DHT22;43493;53.098;6.064;2024-03-07T01:13:09;4.50;99.90
57664;DHT22;43493;53.098;6.064;2024-03-07T01:15:45;4.50;99.90
57664;DHT22;43493;53.098;6.064;2024-03-07T01:18:11;4.50;99.90
57664;DHT22;43493;53.098;6.064;2024-03-07T01:20:36;4.50;99.90
57664;DHT22;43493;53.098;6.064;2024-03-07T01:23:02;4.40;99.90
57664;DHT22;43493;53.098;6.064;2024-03-07T01:25:28;4.40;99.90
57664;DHT22;43493;53.098;6.064;2024-03-07T01:27:54;4.40;99.90
57664;DHT22;43493;53.098;6.064;2024-03-07T01:30:21;4.40;99.90
57664;DHT22;43493;53.098;6.064;2024-03-07T01:32:48;4.40;99.90
57664;DHT22;43493;53.098;6.064;2024-03-07T01:35:14;4.30;99.90
57664;DHT22;43493;53.098;6.064;2024-03-07T01:37:40;4.30;99.90
57664;DHT22;43493;53.098;6.064;2024-03-07T01:40:06;4.30;99.90
57664;DHT22;43493;53.098;6.064;2024-03-07T01:42:32;4.30;99.90
57664;DHT22;43493;53.098;6.064;2024-03-07T01:44:58;4.30;99.90
57664;DHT22;43493;53.098;6.064;2024-03-07T01:47:24;4.30;99.90
57664;DHT22;43493;53.098;6.064;2024-03-07T01:49:51;4.20;99.90
57664;DHT22;43493;53.098;6.064;2024-03-07T01:52:17;4.20;99.90
57664;DHT22;43493;53.098;6.064;2024-03-07T01:54:43;4.20;99.90
57664;DHT22;43493;53.098;6.064;2024-03-07T01:57:09;4.20;99.90
57664;DHT22;43493;53.098;6.064;2024-03-07T01:59:35;4.20;99.90
57664;DHT22;43493;53.098;6.064;2024-03-07T02:02:02;4.10;99.90
57664;DHT22;43493;53.098;6.064;2024-03-07T02:04:28;4.20;99.90
57664;DHT22;43493;53.098;6.064;2024-03-07T02:06:54;4.10;99.90
57664;DHT22;43493;53.098;6.064;2024-03-07T02:09:21;4.10;99.90
57664;DHT22;43493;53.098;6.064;2024-03-07T02:11:49;4.10;99.90
57664;DHT22;43493;53.098;6.064;2024-03-07T02:14:15;4.10;99.90
57664;DHT22;43493;53.098;6.064;2024-03-07T02:16:42;4.00;99.90
57664;DHT22;43493;53.098;6.064;2024-03-07T02:19:12;4.00;99.90
57664;DHT22;43493;53.098;6.064;2024-03-07T02:21:39;4.00;99.90
57664;DHT22;43493;53.098;6.064;2024-03-07T02:24:05;4.00;99.90
57664;DHT22;43493;53.098;6.064;2024-03-07T02:26:30;3.90;99.90
57664;DHT22;43493;53.098;6.064;2024-03-07T02:28:56;3.90;99.90
57664;DHT22;43493;53.098;6.064;2024-03-07T02:31:22;3.90;99.90
57664;DHT22;43493;53.098;6.064;2024-03-07T02:34:02;3.90;99.90
57664;DHT22;43493;53.098;6.064;2024-03-07T02:36:27;3.90;99.90
57664;DHT22;43493;53.098;6.064;2024-03-07T02:38:53;3.90;99.90
57664;DHT22;43493;53.098;6.064;2024-03-07T02:41:20;3.90;99.90
57664;DHT22;43493;53.098;6.064;2024-03-07T02:43:46;3.90;99.90
57664;DHT22;43493;53.098;6.064;2024-03-07T02:46:12;3.80;99.90
57664;DHT22;43493;53.098;6.064;2024-03-07T02:48:38;3.80;99.90
57664;DHT22;43493;53.098;6.064;2024-03-07T02:51:05;3.80;99.90
57664;DHT22;43493;53.098;6.064;2024-03-07T02:53:33;3.80;99.90
57664;DHT22;43493;53.098;6.064;2024-03-07T02:55:59;3.70;99.90
57664;DHT22;43493;53.098;6.064;2024-03-07T02:58:25;3.80;99.90
57664;DHT22;43493;53.098;6.064;2024-03-07T03:00:58;3.70;99.90
57664;DHT22;43493;53.098;6.064;2024-03-07T03:03:29;3.70;99.90
57664;DHT22;43493;53.098;6.064;2024-03-07T03:05:57;3.70;99.90
57664;DHT22;43493;53.098;6.064;2024-03-07T03:08:23;3.70;99.90
57664;DHT22;43493;53.098;6.064;2024-03-07T03:10:50;3.70;99.90
57664;DHT22;43493;53.098;6.064;2024-03-07T03:13:17;3.70;99.90
57664;DHT22;43493;53.098;6.064;2024-03-07T03:15:43;3.70;99.90
57664;DHT22;43493;53.098;6.064;2024-03-07T03:18:09;3.70;99.90
57664;DHT22;43493;53.098;6.064;2024-03-07T03:20:35;3.70;99.90
57664;DHT22;43493;53.098;6.064;2024-03-07T03:23:05;3.60;99.90
57664;DHT22;43493;53.098;6.064;2024-03-07T03:25:31;3.60;99.90
57664;DHT22;43493;53.098;6.064;2024-03-07T03:28:06;3.60;99.90
57664;DHT22;43493;53.098;6.064;2024-03-07T03:30:36;3.60;99.90
57664;DHT22;43493;53.098;6.064;2024-03-07T03:33:02;3.50;99.90
57664;DHT22;43493;53.098;6.064;2024-03-07T03:35:28;3.50;99.90
57664;DHT22;43493;53.098;6.064;2024-03-07T03:37:54;3.50;99.90
57664;DHT22;43493;53.098;6.064;2024-03-07T03:40:19;3.50;99.90
57664;DHT22;43493;53.098;6.064;2024-03-07T03:42:45;3.50;99.90
57664;DHT22;43493;53.098;6.064;2024-03-07T03:45:11;3.50;99.90
57664;DHT22;43493;53.098;6.064;2024-03-07T03:47:42;3.50;99.90
57664;DHT22;43493;53.098;6.064;2024-03-07T03:50:10;3.50;99.90
57664;DHT22;43493;53.098;6.064;2024-03-07T03:52:36;3.50;99.90
57664;DHT22;43493;53.098;6.064;2024-03-07T03:55:04;3.50;99.90
57664;DHT22;43493;53.098;6.064;2024-03-07T03:57:31;3.40;99.90
57664;DHT22;43493;53.098;6.064;2024-03-07T03:59:57;3.40;99.90
57664;DHT22;43493;53.098;6.064;2024-03-07T04:02:23;3.40;99.90
57664;DHT22;43493;53.098;6.064;2024-03-07T04:04:50;3.40;99.90
57664;DHT22;43493;53.098;6.064;2024-03-07T04:07:20;3.40;99.90
57664;DHT22;43493;53.098;6.064;2024-03-07T04:09:46;3.40;99.90
57664;DHT22;43493;53.098;6.064;2024-03-07T04:12:13;3.30;99.90
57664;DHT22;43493;53.098;6.064;2024-03-07T04:14:45;3.30;99.90
57664;DHT22;43493;53.098;6.064;2024-03-07T04:17:11;3.30;99.90
57664;DHT22;43493;53.098;6.064;2024-03-07T04:19:42;3.30;99.90
57664;DHT22;43493;53.098;6.064;2024-03-07T04:22:09;3.30;99.90
57664;DHT22;43493;53.098;6.064;2024-03-07T04:24:35;3.30;99.90
57664;DHT22;43493;53.098;6.064;2024-03-07T04:27:02;3.30;99.90
57664;DHT22;43493;53.098;6.064;2024-03-07T04:29:32;3.20;99.90
57664;DHT22;43493;53.098;6.064;2024-03-07T04:31:58;3.20;99.90
57664;DHT22;43493;53.098;6.064;2024-03-07T04:34:24;3.20;99.90
57664;DHT22;43493;53.098;6.064;2024-03-07T04:36:50;3.10;99.90
57664;DHT22;43493;53.098;6.064;2024-03-07T04:39:16;3.10;99.90
57664;DHT22;43493;53.098;6.064;2024-03-07T04:42:02;3.00;99.90
57664;DHT22;43493;53.098;6.064;2024-03-07T04:44:34;3.00;99.90
57664;DHT22;43493;53.098;6.064;2024-03-07T04:47:05;3.00;99.90
57664;DHT22;43493;53.098;6.064;2024-03-07T04:49:32;3.00;99.90
57664;DHT22;43493;53.098;6.064;2024-03-07T04:52:00;3.00;99.90
57664;DHT22;43493;53.098;6.064;2024-03-07T04:54:27;3.00;99.90
57664;DHT22;43493;53.098;6.064;2024-03-07T04:56:53;3.00;99.90
57664;DHT22;43493;53.098;6.064;2024-03-07T04:59:20;2.90;99.90
57664;DHT22;43493;53.098;6.064;2024-03-07T05:01:47;2.90;99.90
57664;DHT22;43493;53.098;6.064;2024-03-07T05:04:15;2.90;99.90
57664;DHT22;43493;53.098;6.064;2024-03-07T05:06:41;2.90;99.90
57664;DHT22;43493;53.098;6.064;2024-03-07T05:09:09;2.90;99.90
57664;DHT22;43493;53.098;6.064;2024-03-07T05:11:39;2.80;99.90
57664;DHT22;43493;53.098;6.064;2024-03-07T05:14:04;2.80;99.90
57664;DHT22;43493;53.098;6.064;2024-03-07T05:16:31;2.80;99.90
57664;DHT22;43493;53.098;6.064;2024-03-07T05:18:59;2.80;99.90
57664;DHT22;43493;53.098;6.064;2024-03-07T05:21:26;2.80;99.90
57664;DHT22;43493;53.098;6.064;2024-03-07T05:24:07;2.80;99.90
57664;DHT22;43493;53.098;6.064;2024-03-07T05:26:37;2.80;99.90
57664;DHT22;43493;53.098;6.064;2024-03-07T05:29:07;2.80;99.90
57664;DHT22;43493;53.098;6.064;2024-03-07T05:31:38;2.80;99.90
57664;DHT22;43493;53.098;6.064;2024-03-07T05:34:06;2.70;99.90
57664;DHT22;43493;53.098;6.064;2024-03-07T05:36:35;2.70;99.90
57664;DHT22;43493;53.098;6.064;2024-03-07T05:39:02;2.70;99.90
57664;DHT22;43493;53.098;6.064;2024-03-07T05:41:39;2.70;99.90
57664;DHT22;43493;53.098;6.064;2024-03-07T05:44:05;2.70;99.90
57664;DHT22;43493;53.098;6.064;2024-03-07T05:46:38;2.80;99.90
57664;DHT22;43493;53.098;6.064;2024-03-07T05:49:10;2.80;99.90
57664;DHT22;43493;53.098;6.064;2024-03-07T05:51:35;2.70;99.90
57664;DHT22;43493;53.098;6.064;2024-03-07T05:54:02;2.70;99.90
57664;DHT22;43493;53.098;6.064;2024-03-07T05:56:33;2.70;99.90
57664;DHT22;43493;53.098;6.064;2024-03-07T05:59:04;2.70;99.90
57664;DHT22;43493;53.098;6.064;2024-03-07T06:01:31;2.70;99.90
57664;DHT22;43493;53.098;6.064;2024-03-07T06:04:00;2.70;99.90
57664;DHT22;43493;53.098;6.064;2024-03-07T06:06:27;2.70;99.90
57664;DHT22;43493;53.098;6.064;2024-03-07T06:08:53;2.70;99.90
57664;DHT22;43493;53.098;6.064;2024-03-07T06:11:18;2.70;99.90
57664;DHT22;43493;53.098;6.064;2024-03-07T06:13:47;2.70;99.90
57664;DHT22;43493;53.098;6.064;2024-03-07T06:16:13;2.70;99.90
57664;DHT22;43493;53.098;6.064;2024-03-07T06:18:42;2.70;99.90
57664;DHT22;43493;53.098;6.064;2024-03-07T06:21:09;2.70;99.90
57664;DHT22;43493;53.098;6.064;2024-03-07T06:23:35;2.70;99.90
57664;DHT22;43493;53.098;6.064;2024-03-07T06:26:01;2.70;99.90
57664;DHT22;43493;53.098;6.064;2024-03-07T06:28:29;2.70;99.90
57664;DHT22;43493;53.098;6.064;2024-03-07T06:30:54;2.70;99.90
57664;DHT22;43493;53.098;6.064;2024-03-07T06:33:21;2.70;99.90
57664;DHT22;43493;53.098;6.064;2024-03-07T06:35:47;2.70;99.90
57664;DHT22;43493;53.098;6.064;2024-03-07T06:38:13;2.60;99.90
57664;DHT22;43493;53.098;6.064;2024-03-07T06:40:40;2.60;99.90
57664;DHT22;43493;53.098;6.064;2024-03-07T06:43:06;2.60;99.90
57664;DHT22;43493;53.098;6.064;2024-03-07T06:45:35;2.60;99.90
57664;DHT22;43493;53.098;6.064;2024-03-07T06:48:04;2.60;99.90
57664;DHT22;43493;53.098;6.064;2024-03-07T06:50:30;2.60;99.90
57664;DHT22;43493;53.098;6.064;2024-03-07T06:52:56;2.60;99.90
57664;DHT22;43493;53.098;6.064;2024-03-07T06:55:22;2.60;99.90
57664;DHT22;43493;53.098;6.064;2024-03-07T06:57:47;2.60;99.90
57664;DHT22;43493;53.098;6.064;2024-03-07T07:00:14;2.60;99.90
57664;DHT22;43493;53.098;6.064;2024-03-07T07:02:47;2.60;99.90
57664;DHT22;43493;53.098;6.064;2024-03-07T07:05:14;2.60;99.90
57664;DHT22;43493;53.098;6.064;2024-03-07T07:07:47;2.60;99.90
57664;DHT22;43493;53.098;6.064;2024-03-07T07:10:14;2.70;99.90
57664;DHT22;43493;53.098;6.064;2024-03-07T07:12:50;2.70;99.90
57664;DHT22;43493;53.098;6.064;2024-03-07T07:15:18;2.70;99.90
57664;DHT22;43493;53.098;6.064;2024-03-07T07:17:44;2.70;99.90
57664;DHT22;43493;53.098;6.064;2024-03-07T07:20:17;2.80;99.90
57664;DHT22;43493;53.098;6.064;2024-03-07T07:22:45;2.80;99.90
57664;DHT22;43493;53.098;6.064;2024-03-07T07:25:13;2.80;99.90
57664;DHT22;43493;53.098;6.064;2024-03-07T07:27:47;2.80;99.90
57664;DHT22;43493;53.098;6.064;2024-03-07T07:30:15;2.80;99.90
57664;DHT22;43493;53.098;6.064;2024-03-07T07:32:41;2.90;99.90
57664;DHT22;43493;53.098;6.064;2024-03-07T07:35:08;3.00;99.90
57664;DHT22;43493;53.098;6.064;2024-03-07T07:37:44;3.00;99.90
57664;DHT22;43493;53.098;6.064;2024-03-07T07:40:12;3.10;99.90
57664;DHT22;43493;53.098;6.064;2024-03-07T07:42:41;3.20;99.90
57664;DHT22;43493;53.098;6.064;2024-03-07T07:45:09;3.30;99.90
57664;DHT22;43493;53.098;6.064;2024-03-07T07:47:48;3.30;99.90
57664;DHT22;43493;53.098;6.064;2024-03-07T07:50:16;3.40;99.90
57664;DHT22;43493;53.098;6.064;2024-03-07T07:52:50;3.40;99.90
57664;DHT22;43493;53.098;6.064;2024-03-07T07:55:21;3.30;99.90
57664;DHT22;43493;53.098;6.064;2024-03-07T07:57:52;3.20;99.90
57664;DHT22;43493;53.098;6.064;2024-03-07T08:00:22;3.10;99.90
57664;DHT22;43493;53.098;6.064;2024-03-07T08:02:55;3.00;99.90
57664;DHT22;43493;53.098;6.064;2024-03-07T08:05:23;3.00;99.90
57664;DHT22;43493;53.098;6.064;2024-03-07T08:07:50;2.80;99.90
57664;DHT22;43493;53.098;6.064;2024-03-07T08:10:17;2.70;99.90
57664;DHT22;43493;53.098;6.064;2024-03-07T08:12:43;2.70;99.90
57664;DHT22;43493;53.098;6.064;2024-03-07T08:15:11;2.60;99.90
57664;DHT22;43493;53.098;6.064;2024-03-07T08:17:48;2.60;99.90
57664;DHT22;43493;53.098;6.064;2024-03-07T08:20:15;2.50;99.90
57664;DHT22;43493;53.098;6.064;2024-03-07T08:22:42;2.50;99.90
57664;DHT22;43493;53.098;6.064;2024-03-07T08:25:09;2.50;99.90
57664;DHT22;43493;53.098;6.064;2024-03-07T08:27:37;2.60;99.90
57664;DHT22;43493;53.098;6.064;2024-03-07T08:30:04;2.60;99.90
57664;DHT22;43493;53.098;6.064;2024-03-07T08:32:32;2.60;99.90
57664;DHT22;43493;53.098;6.064;2024-03-07T08:35:00;2.70;99.90
57664;DHT22;43493;53.098;6.064;2024-03-07T08:37:41;2.70;99.90
57664;DHT22;43493;53.098;6.064;2024-03-07T08:40:08;2.70;99.90
57664;DHT22;43493;53.098;6.064;2024-03-07T08:42:40;2.70;99.90
57664;DHT22;43493;53.098;6.064;2024-03-07T08:45:08;2.80;99.90
57664;DHT22;43493;53.098;6.064;2024-03-07T08:47:37;2.90;99.90
57664;DHT22;43493;53.098;6.064;2024-03-07T08:50:04;2.90;99.90
57664;DHT22;43493;53.098;6.064;2024-03-07T08:52:36;3.00;99.90
57664;DHT22;43493;53.098;6.064;2024-03-07T08:55:03;3.00;99.90
57664;DHT22;43493;53.098;6.064;2024-03-07T08:57:30;3.10;99.90
57664;DHT22;43493;53.098;6.064;2024-03-07T08:59:56;3.00;99.90
57664;DHT22;43493;53.098;6.064;2024-03-07T09:02:22;3.10;99.90
57664;DHT22;43493;53.098;6.064;2024-03-07T09:04:48;3.20;99.90
57664;DHT22;43493;53.098;6.064;2024-03-07T09:07:14;3.20;99.90
57664;DHT22;43493;53.098;6.064;2024-03-07T09:09:40;3.30;99.90
57664;DHT22;43493;53.098;6.064;2024-03-07T09:12:09;3.30;99.90
57664;DHT22;43493;53.098;6.064;2024-03-07T09:14:35;3.30;99.90
57664;DHT22;43493;53.098;6.064;2024-03-07T09:17:01;3.30;99.90
57664;DHT22;43493;53.098;6.064;2024-03-07T09:19:27;3.30;99.90
57664;DHT22;43493;53.098;6.064;2024-03-07T09:21:54;3.20;99.90
57664;DHT22;43493;53.098;6.064;2024-03-07T09:24:20;3.30;99.90
57664;DHT22;43493;53.098;6.064;2024-03-07T09:26:52;3.30;99.90
57664;DHT22;43493;53.098;6.064;2024-03-07T09:29:19;3.40;99.90
57664;DHT22;43493;53.098;6.064;2024-03-07T09:31:54;3.50;99.90
57664;DHT22;43493;53.098;6.064;2024-03-07T09:34:20;3.50;99.90
57664;DHT22;43493;53.098;6.064;2024-03-07T09:36:47;3.50;99.90
57664;DHT22;43493;53.098;6.064;2024-03-07T09:39:14;3.60;99.90
57664;DHT22;43493;53.098;6.064;2024-03-07T09:41:41;3.60;99.90
57664;DHT22;43493;53.098;6.064;2024-03-07T09:44:09;3.60;99.90
57664;DHT22;43493;53.098;6.064;2024-03-07T09:46:37;3.50;99.90
57664;DHT22;43493;53.098;6.064;2024-03-07T09:49:03;3.50;99.90
57664;DHT22;43493;53.098;6.064;2024-03-07T09:51:31;3.50;99.90
57664;DHT22;43493;53.098;6.064;2024-03-07T09:53:59;3.50;99.90
57664;DHT22;43493;53.098;6.064;2024-03-07T09:56:25;3.50;99.90
57664;DHT22;43493;53.098;6.064;2024-03-07T09:58:55;3.60;99.90
57664;DHT22;43493;53.098;6.064;2024-03-07T10:01:25;3.60;99.90
57664;DHT22;43493;53.098;6.064;2024-03-07T10:04:00;3.70;99.90
57664;DHT22;43493;53.098;6.064;2024-03-07T10:06:41;3.80;99.90
57664;DHT22;43493;53.098;6.064;2024-03-07T10:09:10;3.80;99.90
57664;DHT22;43493;53.098;6.064;2024-03-07T10:11:42;3.70;99.90
57664;DHT22;43493;53.098;6.064;2024-03-07T10:14:09;3.70;99.90
57664;DHT22;43493;53.098;6.064;2024-03-07T10:16:35;3.70;99.90
57664;DHT22;43493;53.098;6.064;2024-03-07T10:19:04;3.60;99.90
57664;DHT22;43493;53.098;6.064;2024-03-07T10:21:30;3.60;99.90
57664;DHT22;43493;53.098;6.064;2024-03-07T10:24:07;3.70;99.90
57664;DHT22;43493;53.098;6.064;2024-03-07T10:26:37;3.70;99.90
57664;DHT22;43493;53.098;6.064;2024-03-07T10:29:04;3.70;99.90
57664;DHT22;43493;53.098;6.064;2024-03-07T10:31:31;3.70;99.90
57664;DHT22;43493;53.098;6.064;2024-03-07T10:34:01;3.70;99.90
57664;DHT22;43493;53.098;6.064;2024-03-07T10:36:33;3.70;99.90
57664;DHT22;43493;53.098;6.064;2024-03-07T10:39:02;3.80;99.90
57664;DHT22;43493;53.098;6.064;2024-03-07T10:41:47;3.80;99.90
57664;DHT22;43493;53.098;6.064;2024-03-07T10:44:20;3.80;99.90
57664;DHT22;43493;53.098;6.064;2024-03-07T10:46:56;3.80;99.90
57664;DHT22;43493;53.098;6.064;2024-03-07T10:49:26;3.80;99.90
57664;DHT22;43493;53.098;6.064;2024-03-07T10:52:06;3.80;99.90
57664;DHT22;43493;53.098;6.064;2024-03-07T10:54:43;3.90;99.90
57664;DHT22;43493;53.098;6.064;2024-03-07T10:57:23;4.00;99.90
57664;DHT22;43493;53.098;6.064;2024-03-07T11:00:00;3.90;99.90
57664;DHT22;43493;53.098;6.064;2024-03-07T11:02:43;4.10;99.90
57664;DHT22;43493;53.098;6.064;2024-03-07T11:05:12;4.20;99.90
57664;DHT22;43493;53.098;6.064;2024-03-07T11:07:38;4.30;99.90
57664;DHT22;43493;53.098;6.064;2024-03-07T11:10:05;4.40;99.90
57664;DHT22;43493;53.098;6.064;2024-03-07T11:12:39;4.40;99.90
57664;DHT22;43493;53.098;6.064;2024-03-07T11:15:08;4.40;99.90
57664;DHT22;43493;53.098;6.064;2024-03-07T11:17:49;4.40;99.90
57664;DHT22;43493;53.098;6.064;2024-03-07T11:20:23;4.40;99.90
57664;DHT22;43493;53.098;6.064;2024-03-07T11:22:50;4.50;99.90
57664;DHT22;43493;53.098;6.064;2024-03-07T11:25:20;4.40;99.90
57664;DHT22;43493;53.098;6.064;2024-03-07T11:27:57;4.50;99.90
57664;DHT22;43493;53.098;6.064;2024-03-07T11:30:23;4.50;99.90
57664;DHT22;43493;53.098;6.064;2024-03-07T11:32:50;4.40;99.90
57664;DHT22;43493;53.098;6.064;2024-03-07T11:35:32;4.40;99.90
57664;DHT22;43493;53.098;6.064;2024-03-07T11:38:01;4.40;99.90
57664;DHT22;43493;53.098;6.064;2024-03-07T11:42:56;4.60;99.90
57664;DHT22;43493;53.098;6.064;2024-03-07T11:45:26;4.60;99.90
57664;DHT22;43493;53.098;6.064;2024-03-07T11:47:54;4.60;99.90
57664;DHT22;43493;53.098;6.064;2024-03-07T11:50:26;4.60;99.90
57664;DHT22;43493;53.098;6.064;2024-03-07T11:52:53;4.60;99.90
57664;DHT22;43493;53.098;6.064;2024-03-07T11:55:23;4.60;99.90
57664;DHT22;43493;53.098;6.064;2024-03-07T11:57:49;4.70;99.90
57664;DHT22;43493;53.098;6.064;2024-03-07T12:00:19;4.70;99.90
57664;DHT22;43493;53.098;6.064;2024-03-07T12:02:45;4.70;99.90
57664;DHT22;43493;53.098;6.064;2024-03-07T12:05:13;4.70;99.90
57664;DHT22;43493;53.098;6.064;2024-03-07T12:07:41;4.80;99.90
57664;DHT22;43493;53.098;6.064;2024-03-07T12:10:09;4.90;99.90
57664;DHT22;43493;53.098;6.064;2024-03-07T12:12:36;4.90;99.90
57664;DHT22;43493;53.098;6.064;2024-03-07T12:15:08;5.10;99.90
57664;DHT22;43493;53.098;6.064;2024-03-07T12:17:47;5.10;99.90
57664;DHT22;43493;53.098;6.064;2024-03-07T12:20:18;5.10;99.90
57664;DHT22;43493;53.098;6.064;2024-03-07T12:22:51;5.20;99.90
57664;DHT22;43493;53.098;6.064;2024-03-07T12:25:19;5.30;99.90
57664;DHT22;43493;53.098;6.064;2024-03-07T12:27:58;5.30;99.90
57664;DHT22;43493;53.098;6.064;2024-03-07T12:30:35;5.40;99.90
57664;DHT22;43493;53.098;6.064;2024-03-07T12:33:02;5.40;99.90
57664;DHT22;43493;53.098;6.064;2024-03-07T12:35:33;5.40;99.90
57664;DHT22;43493;53.098;6.064;2024-03-07T12:37:59;5.40;99.90
57664;DHT22;43493;53.098;6.064;2024-03-07T12:40:26;5.40;99.90
57664;DHT22;43493;53.098;6.064;2024-03-07T12:42:55;5.40;99.90
57664;DHT22;43493;53.098;6.064;2024-03-07T12:45:21;5.40;99.90
57664;DHT22;43493;53.098;6.064;2024-03-07T12:47:47;5.50;99.90
57664;DHT22;43493;53.098;6.064;2024-03-07T12:50:19;5.50;99.90
57664;DHT22;43493;53.098;6.064;2024-03-07T12:52:49;5.50;99.90
57664;DHT22;43493;53.098;6.064;2024-03-07T12:55:16;5.60;99.90
57664;DHT22;43493;53.098;6.064;2024-03-07T12:57:47;5.60;99.90
57664;DHT22;43493;53.098;6.064;2024-03-07T13:00:18;5.60;99.90
57664;DHT22;43493;53.098;6.064;2024-03-07T13:02:49;5.50;99.90
57664;DHT22;43493;53.098;6.064;2024-03-07T13:05:14;5.50;99.90
57664;DHT22;43493;53.098;6.064;2024-03-07T13:07:51;5.50;99.90
57664;DHT22;43493;53.098;6.064;2024-03-07T13:10:17;5.60;99.90
57664;DHT22;43493;53.098;6.064;2024-03-07T13:12:46;5.60;99.90
57664;DHT22;43493;53.098;6.064;2024-03-07T13:15:17;5.70;99.90
57664;DHT22;43493;53.098;6.064;2024-03-07T13:17:43;5.70;99.90
57664;DHT22;43493;53.098;6.064;2024-03-07T13:20:12;5.80;99.90
57664;DHT22;43493;53.098;6.064;2024-03-07T13:22:40;5.90;99.90
57664;DHT22;43493;53.098;6.064;2024-03-07T13:25:12;5.90;99.90
57664;DHT22;43493;53.098;6.064;2024-03-07T13:27:44;5.90;99.90
57664;DHT22;43493;53.098;6.064;2024-03-07T13:30:16;5.90;99.90
57664;DHT22;43493;53.098;6.064;2024-03-07T13:32:48;6.00;99.90
57664;DHT22;43493;53.098;6.064;2024-03-07T13:35:15;6.00;99.90
57664;DHT22;43493;53.098;6.064;2024-03-07T13:37:41;6.00;99.90
57664;DHT22;43493;53.098;6.064;2024-03-07T13:40:07;6.00;99.90
57664;DHT22;43493;53.098;6.064;2024-03-07T13:42:58;6.10;99.90
57664;DHT22;43493;53.098;6.064;2024-03-07T13:45:29;6.10;99.90
57664;DHT22;43493;53.098;6.064;2024-03-07T13:47:58;6.20;99.90
57664;DHT22;43493;53.098;6.064;2024-03-07T13:50:28;6.20;99.90
57664;DHT22;43493;53.098;6.064;2024-03-07T13:52:56;6.20;99.90
57664;DHT22;43493;53.098;6.064;2024-03-07T14:24:10;6.30;99.90
57664;DHT22;43493;53.098;6.064;2024-03-07T14:30:21;6.30;99.90
57664;DHT22;43493;53.098;6.064;2024-03-07T14:32:50;6.30;99.90
57664;DHT22;43493;53.098;6.064;2024-03-07T14:35:21;6.30;99.90
57664;DHT22;43493;53.098;6.064;2024-03-07T14:40:40;6.30;99.90
57664;DHT22;43493;53.098;6.064;2024-03-07T14:43:06;6.40;99.90
57664;DHT22;43493;53.098;6.064;2024-03-07T14:45:36;6.40;99.90
57664;DHT22;43493;53.098;6.064;2024-03-07T14:48:04;6.40;99.90
57664;DHT22;43493;53.098;6.064;2024-03-07T14:50:33;6.30;99.90
57664;DHT22;43493;53.098;6.064;2024-03-07T14:52:59;6.30;99.90
57664;DHT22;43493;53.098;6.064;2024-03-07T14:55:25;6.30;99.90
57664;DHT22;43493;53.098;6.064;2024-03-07T14:57:51;6.30;99.90
57664;DHT22;43493;53.098;6.064;2024-03-07T15:00:17;6.30;99.90
57664;DHT22;43493;53.098;6.064;2024-03-07T15:02:52;6.30;99.90
57664;DHT22;43493;53.098;6.064;2024-03-07T15:05:25;6.30;99.90
57664;DHT22;43493;53.098;6.064;2024-03-07T15:07:52;6.30;99.90
57664;DHT22;43493;53.098;6.064;2024-03-07T15:10:41;6.30;99.90
57664;DHT22;43493;53.098;6.064;2024-03-07T15:13:07;6.40;99.90
57664;DHT22;43493;53.098;6.064;2024-03-07T15:15:36;6.40;99.90
57664;DHT22;43493;53.098;6.064;2024-03-07T15:18:01;6.40;99.90
57664;DHT22;43493;53.098;6.064;2024-03-07T15:20:27;6.40;99.90
57664;DHT22;43493;53.098;6.064;2024-03-07T15:22:59;6.40;99.90
57664;DHT22;43493;53.098;6.064;2024-03-07T15:25:26;6.40;99.90
57664;DHT22;43493;53.098;6.064;2024-03-07T15:27:55;6.40;99.90
57664;DHT22;43493;53.098;6.064;2024-03-07T15:30:28;6.40;99.90
57664;DHT22;43493;53.098;6.064;2024-03-07T15:33:04;6.40;99.90
57664;DHT22;43493;53.098;6.064;2024-03-07T15:35:30;6.40;99.90
57664;DHT22;43493;53.098;6.064;2024-03-07T15:37:56;6.40;99.90
57664;DHT22;43493;53.098;6.064;2024-03-07T15:40:23;6.40;99.90
57664;DHT22;43493;53.098;6.064;2024-03-07T15:42:50;6.40;99.90
57664;DHT22;43493;53.098;6.064;2024-03-07T15:45:21;6.50;99.90
57664;DHT22;43493;53.098;6.064;2024-03-07T15:47:55;6.50;99.90
57664;DHT22;43493;53.098;6.064;2024-03-07T15:50:24;6.50;99.90
57664;DHT22;43493;53.098;6.064;2024-03-07T15:52:55;6.60;99.90
57664;DHT22;43493;53.098;6.064;2024-03-07T15:55:23;6.50;99.90
57664;DHT22;43493;53.098;6.064;2024-03-07T15:57:55;6.50;99.90
57664;DHT22;43493;53.098;6.064;2024-03-07T16:00:23;6.50;99.90
57664;DHT22;43493;53.098;6.064;2024-03-07T16:02:57;6.60;99.90
57664;DHT22;43493;53.098;6.064;2024-03-07T16:05:25;6.50;99.90
57664;DHT22;43493;53.098;6.064;2024-03-07T16:07:52;6.50;99.90
57664;DHT22;43493;53.098;6.064;2024-03-07T16:10:22;6.50;99.90
57664;DHT22;43493;53.098;6.064;2024-03-07T16:12:53;6.50;99.90
57664;DHT22;43493;53.098;6.064;2024-03-07T16:15:20;6.50;99.90
57664;DHT22;43493;53.098;6.064;2024-03-07T16:17:52;6.50;99.90
57664;DHT22;43493;53.098;6.064;2024-03-07T16:20:30;6.50;99.90
57664;DHT22;43493;53.098;6.064;2024-03-07T16:22:57;6.50;99.90
57664;DHT22;43493;53.098;6.064;2024-03-07T16:25:23;6.50;99.90
57664;DHT22;43493;53.098;6.064;2024-03-07T16:27:50;6.60;99.90
57664;DHT22;43493;53.098;6.064;2024-03-07T16:30:21;6.50;99.90
57664;DHT22;43493;53.098;6.064;2024-03-07T16:32:48;6.50;99.90